Repubbli Del Brasile — IBZB — position and weather

sailwx.info

Track history (hours):
 
Tides and Currents Weather Stations Pressure Air Temp Water Temp Dewpoint Dewpoint Depression Visibility Wind Speed Wind Dir Waves Ship Positions

Repubbli Del Brasile

Last reported at 2015-Aug-29 06:33 UTC. Time now 2015-Aug-29 07:24 UTC.
Position N 40°29' E 014°21'.

Length 209 m; draft 8.9 m.

Type: Ship (hazmat cat B). MMSI: 247310000.

Date/timePositionNaut miles runAvg speedWind from/ knotsBaromVisibWave heightAir tempDewpointWater temp
2015-Aug-29 06:33N 40°29' E 014°21'3 0.1
2015-Aug-28 05:33N 40°31' E 014°19'1515.2
2015-Aug-28 04:34N 40°33' E 013°59'2015.9
2015-Aug-28 03:18N 40°38' E 013°33'1715.9
2015-Aug-28 02:13N 40°43' E 013°12'1116.0
2015-Aug-28 01:32N 40°46' E 012°58'3515.6
2015-Aug-27 23:18N 41°05' E 012°19'1216.0
2015-Aug-27 22:32N 41°14' E 012°08'4615.4
2015-Aug-27 19:33N 41°46' E 011°24'1615.5
2015-Aug-27 18:33N 41°57' E 011°09'1615.4
2015-Aug-27 17:33N 42°07' E 010°54'7514.5
2015-Aug-27 12:23N 43°13' E 010°05'1316.0
2015-Aug-27 11:34N 43°26' E 010°10'10 9.7
2015-Aug-27 10:33N 43°34' E 010°18'1 0.6
2015-Aug-27 09:32N 43°34' E 010°18'0 0.0
2015-Aug-27 08:29N 43°34' E 010°18'0 0.0
2015-Aug-27 07:31N 43°34' E 010°18'3 0.8
2015-Aug-27 03:19N 43°31' E 010°16'3 3.4
2015-Aug-27 02:26N 43°28' E 010°15'0 0.0
2015-Aug-26 22:30N 43°28' E 010°15'0 0.0
2015-Aug-26 21:30N 43°28' E 010°15'0 0.0
2015-Aug-26 20:32N 43°28' E 010°15'21 9.2
2015-Aug-26 18:18N 43°35' E 009°48'1315.5
2015-Aug-26 17:29N 43°43' E 009°35'1915.4
2015-Aug-26 16:15N 43°55' E 009°14'1315.1
2015-Aug-26 15:24N 44°07' E 009°07'1315.1
2015-Aug-26 14:33N 44°18' E 008°59'5 5.1
2015-Aug-26 13:33N 44°23' E 008°55'1 1.4
2015-Aug-26 12:33N 44°24' E 008°55'1 1.3
2015-Aug-26 11:33N 44°24' E 008°53'0 0.0
2015-Aug-26 10:30N 44°24' E 008°53'0 0.0
2015-Aug-26 09:29N 44°24' E 008°53'0 0.0
2015-Aug-26 08:32N 44°24' E 008°53'0 0.0
2015-Aug-26 07:31N 44°24' E 008°53'0 0.0
2015-Aug-26 06:31N 44°24' E 008°53'0 0.0
2015-Aug-26 05:31N 44°24' E 008°53'0 0.0
2015-Aug-26 04:33N 44°24' E 008°53'0 0.0
2015-Aug-26 03:33N 44°24' E 008°53'0 0.0
2015-Aug-26 02:32N 44°24' E 008°53'0 0.0
2015-Aug-26 01:32N 44°24' E 008°53'0 0.0
2015-Aug-26 00:31N 44°24' E 008°53'0 0.0
2015-Aug-25 23:31N 44°24' E 008°53'0 0.0
2015-Aug-25 22:31N 44°24' E 008°53'0 0.0
2015-Aug-25 21:33N 44°24' E 008°53'0 0.0
2015-Aug-25 20:30N 44°24' E 008°53'0 0.0
2015-Aug-25 19:32N 44°24' E 008°53'0 0.0
2015-Aug-25 18:32N 44°24' E 008°53'0 0.0
2015-Aug-25 17:31N 44°24' E 008°53'0 0.0
2015-Aug-25 16:31N 44°24' E 008°53'0 0.0
2015-Aug-25 15:28N 44°24' E 008°53'0 0.0
2015-Aug-25 14:33N 44°24' E 008°53'0 0.0
2015-Aug-25 13:30N 44°24' E 008°53'0 0.0
2015-Aug-25 12:32N 44°24' E 008°53'0 0.0
2015-Aug-25 11:32N 44°24' E 008°53'0 0.0
2015-Aug-25 10:31N 44°24' E 008°53'0 0.0
2015-Aug-25 09:33N 44°24' E 008°53'4 3.9
2015-Aug-25 08:33N 44°22' E 008°58'5 4.6
2015-Aug-25 07:33N 44°18' E 008°56'1515.1
2015-Aug-25 06:34N 44°08' E 008°39'6515.5
2015-Aug-25 02:23N 43°26' E 007°32'1315.6
2015-Aug-25 01:33N 43°18' E 007°18'1515.4
2015-Aug-25 00:33N 43°08' E 007°01'1514.9
2015-Aug-24 23:33N 42°59' E 006°45'1414.3
2015-Aug-24 22:33N 42°51' E 006°29'5914.7
2015-Aug-24 18:33N 43°10' E 005°13'1110.6
2015-Aug-24 17:33N 43°20' E 005°17'2 2.3
2015-Aug-24 16:33N 43°21' E 005°20'0 0.0
2015-Aug-24 15:26N 43°21' E 005°20'0 0.0
2015-Aug-24 14:26N 43°21' E 005°20'0 0.0
2015-Aug-24 13:25N 43°21' E 005°20'0 0.0
2015-Aug-24 12:25N 43°21' E 005°20'0 0.0
2015-Aug-24 11:18N 43°21' E 005°20'0 0.0
2015-Aug-24 10:24N 43°21' E 005°20'0 0.0
2015-Aug-24 09:27N 43°21' E 005°20'0 0.0
2015-Aug-24 08:32N 43°21' E 005°20'0 0.0
2015-Aug-24 07:23N 43°21' E 005°20'0 0.0
2015-Aug-24 06:28N 43°21' E 005°20'0 0.0
2015-Aug-24 05:22N 43°21' E 005°20'0 0.0
2015-Aug-24 04:28N 43°21' E 005°20'0 0.0
2015-Aug-24 03:33N 43°21' E 005°20'0 0.0
2015-Aug-24 02:33N 43°21' E 005°20'0 0.0
2015-Aug-24 01:20N 43°21' E 005°20'0 0.0
2015-Aug-23 23:31N 43°21' E 005°20'0 0.0
2015-Aug-23 22:13N 43°21' E 005°20'0 0.0
2015-Aug-23 21:24N 43°21' E 005°20'2 1.8
2015-Aug-23 20:34N 43°21' E 005°18'9 8.7
2015-Aug-23 19:34N 43°14' E 005°10'16515.0
2015-Aug-23 08:30N 41°13' E 002°39'1415.2
2015-Aug-23 07:33N 41°04' E 002°24'1414.5
2015-Aug-23 06:33N 40°55' E 002°09'1514.7
2015-Aug-23 05:33N 40°46' E 001°53'1515.0
2015-Aug-23 04:33N 40°38' E 001°37'1515.1
2015-Aug-23 03:33N 40°29' E 001°21'1515.2
2015-Aug-23 02:33N 40°20' E 001°05'1515.4
2015-Aug-23 01:34N 40°11' E 000°49'6215.0
2015-Aug-22 21:26N 39°29' W 000°11'6 7.0
2015-Aug-22 20:33N 39°27' W 000°18'0 0.0
2015-Aug-22 19:33N 39°27' W 000°18'0 0.0
2015-Aug-22 18:32N 39°27' W 000°18'0 0.0
2015-Aug-22 17:32N 39°27' W 000°18'0 0.0
2015-Aug-22 16:32N 39°27' W 000°18'0 0.0
2015-Aug-22 15:31N 39°27' W 000°18'0 0.0
2015-Aug-22 14:31N 39°27' W 000°18'0 0.0
2015-Aug-22 13:33N 39°27' W 000°18'0 0.0
2015-Aug-22 12:33N 39°27' W 000°18'0 0.0
2015-Aug-22 11:32N 39°27' W 000°18'0 0.0
2015-Aug-22 10:32N 39°27' W 000°18'0 0.0
2015-Aug-22 09:32N 39°27' W 000°18'0 0.0
2015-Aug-22 08:31N 39°27' W 000°18'0 0.0
2015-Aug-22 07:31N 39°27' W 000°18'0 0.0
2015-Aug-22 06:33N 39°27' W 000°18'0 0.0
2015-Aug-22 05:33N 39°27' W 000°18'0 0.0
2015-Aug-22 04:32N 39°27' W 000°18'0 0.0
2015-Aug-22 03:33N 39°27' W 000°18'6 5.6
2015-Aug-22 02:32N 39°23' W 000°13'4814.9
2015-Aug-21 23:21N 38°47' E 000°27'1314.8
2015-Aug-21 22:28N 38°35' E 000°21'1715.6
2015-Aug-21 21:23N 38°21' E 000°09'1315.9
2015-Aug-21 20:33N 38°10' W 000°00'1615.8
2015-Aug-21 19:33N 37°56' W 000°11'1615.7
2015-Aug-21 18:34N 37°43' W 000°22'1515.3
2015-Aug-21 17:33N 37°31' W 000°33'1515.1
2015-Aug-21 16:34N 37°21' W 000°48'1515.2
2015-Aug-21 15:33N 37°11' W 001°02'1514.8
2015-Aug-21 14:33N 37°01' W 001°16'1514.8
2015-Aug-21 13:30N 36°51' W 001°30'1614.5
2015-Aug-21 12:22N 36°40' W 001°46'  
Track history (hours):
 
Tides and Currents Weather Stations Pressure Air Temp Water Temp Dewpoint Dewpoint Depression Visibility Wind Speed Wind Dir Waves Ship Positions

Repubbli Del Brasile

Last reported at 2015-Aug-29 06:33 UTC. Time now 2015-Aug-29 07:24 UTC.
Position N 40°29' E 014°21'.

Length 209 m; draft 8.9 m.

Type: Ship (hazmat cat B). MMSI: 247310000.

Date/timePositionNaut miles runAvg speedWind from/ knotsBaromVisibWave heightAir tempDewpointWater temp
2015-Aug-29 06:33N 40°29' E 014°21'3 0.1
2015-Aug-28 05:33N 40°31' E 014°19'1515.2
2015-Aug-28 04:34N 40°33' E 013°59'2015.9
2015-Aug-28 03:18N 40°38' E 013°33'1715.9
2015-Aug-28 02:13N 40°43' E 013°12'1116.0
2015-Aug-28 01:32N 40°46' E 012°58'3515.6
2015-Aug-27 23:18N 41°05' E 012°19'1216.0
2015-Aug-27 22:32N 41°14' E 012°08'4615.4
2015-Aug-27 19:33N 41°46' E 011°24'1615.5
2015-Aug-27 18:33N 41°57' E 011°09'1615.4
2015-Aug-27 17:33N 42°07' E 010°54'7514.5
2015-Aug-27 12:23N 43°13' E 010°05'1316.0
2015-Aug-27 11:34N 43°26' E 010°10'10 9.7
2015-Aug-27 10:33N 43°34' E 010°18'1 0.6
2015-Aug-27 09:32N 43°34' E 010°18'0 0.0
2015-Aug-27 08:29N 43°34' E 010°18'0 0.0
2015-Aug-27 07:31N 43°34' E 010°18'3 0.8
2015-Aug-27 03:19N 43°31' E 010°16'3 3.4
2015-Aug-27 02:26N 43°28' E 010°15'0 0.0
2015-Aug-26 22:30N 43°28' E 010°15'0 0.0
2015-Aug-26 21:30N 43°28' E 010°15'0 0.0
2015-Aug-26 20:32N 43°28' E 010°15'21 9.2
2015-Aug-26 18:18N 43°35' E 009°48'1315.5
2015-Aug-26 17:29N 43°43' E 009°35'1915.4
2015-Aug-26 16:15N 43°55' E 009°14'1315.1
2015-Aug-26 15:24N 44°07' E 009°07'1315.1
2015-Aug-26 14:33N 44°18' E 008°59'5 5.1
2015-Aug-26 13:33N 44°23' E 008°55'1 1.4
2015-Aug-26 12:33N 44°24' E 008°55'1 1.3
2015-Aug-26 11:33N 44°24' E 008°53'0 0.0
2015-Aug-26 10:30N 44°24' E 008°53'0 0.0
2015-Aug-26 09:29N 44°24' E 008°53'0 0.0
2015-Aug-26 08:32N 44°24' E 008°53'0 0.0
2015-Aug-26 07:31N 44°24' E 008°53'0 0.0
2015-Aug-26 06:31N 44°24' E 008°53'0 0.0
2015-Aug-26 05:31N 44°24' E 008°53'0 0.0
2015-Aug-26 04:33N 44°24' E 008°53'0 0.0
2015-Aug-26 03:33N 44°24' E 008°53'0 0.0
2015-Aug-26 02:32N 44°24' E 008°53'0 0.0
2015-Aug-26 01:32N 44°24' E 008°53'0 0.0
2015-Aug-26 00:31N 44°24' E 008°53'0 0.0
2015-Aug-25 23:31N 44°24' E 008°53'0 0.0
2015-Aug-25 22:31N 44°24' E 008°53'0 0.0
2015-Aug-25 21:33N 44°24' E 008°53'0 0.0
2015-Aug-25 20:30N 44°24' E 008°53'0 0.0
2015-Aug-25 19:32N 44°24' E 008°53'0 0.0
2015-Aug-25 18:32N 44°24' E 008°53'0 0.0
2015-Aug-25 17:31N 44°24' E 008°53'0 0.0
2015-Aug-25 16:31N 44°24' E 008°53'0 0.0
2015-Aug-25 15:28N 44°24' E 008°53'0 0.0
2015-Aug-25 14:33N 44°24' E 008°53'0 0.0
2015-Aug-25 13:30N 44°24' E 008°53'0 0.0
2015-Aug-25 12:32N 44°24' E 008°53'0 0.0
2015-Aug-25 11:32N 44°24' E 008°53'0 0.0
2015-Aug-25 10:31N 44°24' E 008°53'0 0.0
2015-Aug-25 09:33N 44°24' E 008°53'4 3.9
2015-Aug-25 08:33N 44°22' E 008°58'5 4.6
2015-Aug-25 07:33N 44°18' E 008°56'1515.1
2015-Aug-25 06:34N 44°08' E 008°39'6515.5
2015-Aug-25 02:23N 43°26' E 007°32'1315.6
2015-Aug-25 01:33N 43°18' E 007°18'1515.4
2015-Aug-25 00:33N 43°08' E 007°01'1514.9
2015-Aug-24 23:33N 42°59' E 006°45'1414.3
2015-Aug-24 22:33N 42°51' E 006°29'5914.7
2015-Aug-24 18:33N 43°10' E 005°13'1110.6
2015-Aug-24 17:33N 43°20' E 005°17'2 2.3
2015-Aug-24 16:33N 43°21' E 005°20'0 0.0
2015-Aug-24 15:26N 43°21' E 005°20'0 0.0
2015-Aug-24 14:26N 43°21' E 005°20'0 0.0
2015-Aug-24 13:25N 43°21' E 005°20'0 0.0
2015-Aug-24 12:25N 43°21' E 005°20'0 0.0
2015-Aug-24 11:18N 43°21' E 005°20'0 0.0
2015-Aug-24 10:24N 43°21' E 005°20'0 0.0
2015-Aug-24 09:27N 43°21' E 005°20'0 0.0
2015-Aug-24 08:32N 43°21' E 005°20'0 0.0
2015-Aug-24 07:23N 43°21' E 005°20'0 0.0
2015-Aug-24 06:28N 43°21' E 005°20'0 0.0
2015-Aug-24 05:22N 43°21' E 005°20'0 0.0
2015-Aug-24 04:28N 43°21' E 005°20'0 0.0
2015-Aug-24 03:33N 43°21' E 005°20'0 0.0
2015-Aug-24 02:33N 43°21' E 005°20'0 0.0
2015-Aug-24 01:20N 43°21' E 005°20'0 0.0
2015-Aug-23 23:31N 43°21' E 005°20'0 0.0
2015-Aug-23 22:13N 43°21' E 005°20'0 0.0
2015-Aug-23 21:24N 43°21' E 005°20'2 1.8
2015-Aug-23 20:34N 43°21' E 005°18'9 8.7
2015-Aug-23 19:34N 43°14' E 005°10'16515.0
2015-Aug-23 08:30N 41°13' E 002°39'1415.2
2015-Aug-23 07:33N 41°04' E 002°24'1414.5
2015-Aug-23 06:33N 40°55' E 002°09'1514.7
2015-Aug-23 05:33N 40°46' E 001°53'1515.0
2015-Aug-23 04:33N 40°38' E 001°37'1515.1
2015-Aug-23 03:33N 40°29' E 001°21'1515.2
2015-Aug-23 02:33N 40°20' E 001°05'1515.4
2015-Aug-23 01:34N 40°11' E 000°49'6215.0
2015-Aug-22 21:26N 39°29' W 000°11'6 7.0
2015-Aug-22 20:33N 39°27' W 000°18'0 0.0
2015-Aug-22 19:33N 39°27' W 000°18'0 0.0
2015-Aug-22 18:32N 39°27' W 000°18'0 0.0
2015-Aug-22 17:32N 39°27' W 000°18'0 0.0
2015-Aug-22 16:32N 39°27' W 000°18'0 0.0
2015-Aug-22 15:31N 39°27' W 000°18'0 0.0
2015-Aug-22 14:31N 39°27' W 000°18'0 0.0
2015-Aug-22 13:33N 39°27' W 000°18'0 0.0
2015-Aug-22 12:33N 39°27' W 000°18'0 0.0
2015-Aug-22 11:32N 39°27' W 000°18'0 0.0
2015-Aug-22 10:32N 39°27' W 000°18'0 0.0
2015-Aug-22 09:32N 39°27' W 000°18'0 0.0
2015-Aug-22 08:31N 39°27' W 000°18'0 0.0
2015-Aug-22 07:31N 39°27' W 000°18'0 0.0
2015-Aug-22 06:33N 39°27' W 000°18'0 0.0
2015-Aug-22 05:33N 39°27' W 000°18'0 0.0
2015-Aug-22 04:32N 39°27' W 000°18'0 0.0
2015-Aug-22 03:33N 39°27' W 000°18'6 5.6
2015-Aug-22 02:32N 39°23' W 000°13'4814.9
2015-Aug-21 23:21N 38°47' E 000°27'1314.8
2015-Aug-21 22:28N 38°35' E 000°21'1715.6
2015-Aug-21 21:23N 38°21' E 000°09'1315.9
2015-Aug-21 20:33N 38°10' W 000°00'1615.8
2015-Aug-21 19:33N 37°56' W 000°11'1615.7
2015-Aug-21 18:34N 37°43' W 000°22'1515.3
2015-Aug-21 17:33N 37°31' W 000°33'1515.1
2015-Aug-21 16:34N 37°21' W 000°48'1515.2
2015-Aug-21 15:33N 37°11' W 001°02'1514.8
2015-Aug-21 14:33N 37°01' W 001°16'1514.8
2015-Aug-21 13:30N 36°51' W 001°30'1614.5
2015-Aug-21 12:22N 36°40' W 001°46'  

Dump ship's entire track history